EURK1: Fall River, Eureka KS

Data processed at Sat Dec 15 2018 23:32


All information presented herein is the property of the government of the United States of America and may be revised or deleted at any time without prior notice.
Dissemination of this information without the expressed written consent of the Public Affairs Office, Tulsa District U.S. Army Corps of Engineers is strictly prohibited.
These data are gathered electronically and, as presented, have not undergone any form of quality control. These data are not guaranteed to be valid or correct.
Go to home page.
Go to station list.
Go to home page.

Downstream station:


Previous Day
Next Day
Current Day
    
SHEF ID:       EURK1     Fall River, Eureka KS
STATION TYPE:  

               PRECIP     STAGE  RIV-FLOW  BAT-LOAD
                   in        ft       cfs      volt
              Ccp-Rev   Ccp-Rev   Ccp-Rev   Ccp-Rev
(US/Central)
12/15 00:00      0.00      5.94       151     12.65
12/15 01:00      0.00      5.93       149     12.65
12/15 02:00      0.00      5.91       146     12.65
12/15 03:00      0.00      5.97       156     12.60
12/15 04:00      0.00      5.96       154     12.60
12/15 05:00      0.00      5.99       159     12.60
12/15 06:00      0.00      5.96       154     12.54
12/15 07:00      0.00      5.98       157     12.54
12/15 08:00      0.00      5.95       152     12.54
12/15 09:00      0.00      5.93       149     13.65
12/15 10:00      0.00      5.95       152     13.71
12/15 11:00      0.00      5.96       154     13.59
12/15 12:00      0.00      5.92       147     13.65
12/15 13:00      0.00      5.92       147     14.06
12/15 14:00      0.00      5.94       151     13.65
12/15 15:00      0.00      5.96       154     13.30
12/15 16:00      0.00      5.94       151     13.24
12/15 17:00      0.00      5.91       146     13.12
12/15 18:00      0.00      5.93       149     13.00
12/15 19:00      0.00      5.93       149     12.89
12/15 20:00      0.00      5.90       144     12.83
12/15 21:00      0.00      5.88       140     12.77
12/15 22:00      0.00      5.88       140     12.71
12/15 23:00      ----      ----      ----      ----